Terminal Aerodrome Forecast
Issued by NWS

Home | Current Version | Previous Version | Text Only | Print | Product List | Glossary On
Versions: 1 2 3 4 5 6 7 8 9 10 11 12 13 14
000
FTUS46 KSEW 181100
TAFHQM
TAF
KHQM 181120Z 1812/1912 07008KT 6SM BR VCSH SCT020 OVC040
      TEMPO 1812/1816 BKN015 OVC030
     FM181700 08009KT P6SM BKN040 OVC070
     FM182200 12012G20KT 6SM -RA BR OVC030
     FM190600 18015G25KT 5SM RA BR OVC020=

USA.gov is the U.S. government's official web portal to all federal, state and local government web resources and services.